Time,TemperatureF,DewpointF,PressureIn,WindDirection,WindDirectionDegrees,WindSpeedMPH,WindSpeedGustMPH,Humidity,HourlyPrecipIn,Conditions,Clouds,dailyrainin,SoftwareType,DateUTC
2013-01-21 00:01:00,18.3,15.1,30.46,NW,320,2.0,6.0,87,0.00,,,0.00,LWC V2.00 B2112,2013-01-21 08:01:00,
2013-01-21 00:06:00,18.3,15.4,30.46,NW,320,2.0,6.0,88,0.00,,,0.00,LWC V2.00 B2112,2013-01-21 08:06:00,
2013-01-21 00:11:00,18.1,15.2,30.46,NW,320,2.0,2.0,88,0.00,,,0.00,LWC V2.00 B2112,2013-01-21 08:11:00,
2013-01-21 00:16:00,18.1,14.9,30.46,NW,320,0.0,6.0,87,0.00,,,0.00,LWC V2.00 B2112,2013-01-21 08:16:00,
2013-01-21 00:21:00,18.0,14.8,30.46,NW,320,4.0,6.0,87,0.00,,,0.00,LWC V2.00 B2112,2013-01-21 08:21:00,
2013-01-21 00:26:00,18.0,14.5,30.46,NW,318,6.0,8.0,86,0.00,,,0.00,LWC V2.00 B2112,2013-01-21 08:26:00,
2013-01-21 00:31:00,18.0,14.8,30.46,NW,319,2.0,4.0,87,0.00,,,0.00,LWC V2.00 B2112,2013-01-21 08:31:00,
2013-01-21 00:36:00,18.0,14.8,30.46,NNW,339,6.0,7.0,87,0.00,,,0.00,LWC V2.00 B2112,2013-01-21 08:36:00,
2013-01-21 00:41:00,17.8,14.6,30.45,North,1,7.0,7.0,87,0.00,,,0.00,LWC V2.00 B2112,2013-01-21 08:41:00,
2013-01-21 00:46:00,17.8,14.6,30.45,North,0,0.0,6.0,87,0.00,,,0.00,LWC V2.00 B2112,2013-01-21 08:46:00,
2013-01-21 00:51:00,17.8,14.6,30.45,North,1,0.0,2.0,87,0.00,,,0.00,LWC V2.00 B2112,2013-01-21 08:51:00,
2013-01-21 00:56:00,17.7,15.0,30.45,North,357,0.0,1.0,89,0.00,,,0.00,LWC V2.00 B2112,2013-01-21 08:56:00,
2013-01-21 01:01:00,17.5,14.8,30.45,WNW,301,8.0,8.0,89,0.00,,,0.00,LWC V2.00 B2112,2013-01-21 09:01:00,
2013-01-21 01:06:00,17.3,14.4,30.45,NW,306,0.0,6.0,88,0.00,,,0.00,LWC V2.00 B2112,2013-01-21 09:06:00,
2013-01-21 01:11:00,17.2,14.3,30.46,NW,318,4.0,7.0,88,0.00,,,0.00,LWC V2.00 B2112,2013-01-21 09:11:00,
2013-01-21 01:16:00,17.0,14.1,30.46,WNW,301,2.0,7.0,88,0.00,,,0.00,LWC V2.00 B2112,2013-01-21 09:16:00,
2013-01-21 01:21:00,16.9,14.0,30.46,NW,305,4.0,4.0,88,0.00,,,0.00,LWC V2.00 B2112,2013-01-21 09:21:00,
2013-01-21 01:26:00,16.9,13.7,30.46,NNW,330,8.0,9.0,87,0.00,,,0.00,LWC V2.00 B2112,2013-01-21 09:26:00,
2013-01-21 01:31:00,16.5,13.6,30.46,NW,325,8.0,9.0,88,0.00,,,0.00,LWC V2.00 B2112,2013-01-21 09:31:00,
2013-01-21 01:36:00,16.4,13.5,30.46,NNW,329,6.0,7.0,88,0.00,,,0.00,LWC V2.00 B2112,2013-01-21 09:36:00,
2013-01-21 01:41:00,16.4,13.5,30.46,NNW,332,4.0,7.0,88,0.00,,,0.00,LWC V2.00 B2112,2013-01-21 09:41:00,
2013-01-21 01:46:00,16.4,13.0,30.46,North,359,0.0,7.0,86,0.00,,,0.00,LWC V2.00 B2112,2013-01-21 09:46:00,
2013-01-21 01:51:00,16.2,12.8,30.46,WNW,296,6.0,6.0,86,0.00,,,0.00,LWC V2.00 B2112,2013-01-21 09:51:00,
2013-01-21 01:56:00,16.2,12.8,30.47,NNW,330,2.0,6.0,86,0.00,,,0.00,LWC V2.00 B2112,2013-01-21 09:56:00,
2013-01-21 02:01:00,16.2,12.8,30.47,WNW,299,6.0,8.0,86,0.00,,,0.00,LWC V2.00 B2112,2013-01-21 10:01:00,
2013-01-21 02:06:00,16.2,12.8,30.47,NW,311,1.0,4.0,86,0.00,,,0.00,LWC V2.00 B2112,2013-01-21 10:06:00,
2013-01-21 02:11:00,16.2,12.8,30.47,NW,311,0.0,1.0,86,0.00,,,0.00,LWC V2.00 B2112,2013-01-21 10:11:00,
2013-01-21 02:16:00,16.2,12.8,30.47,NW,311,0.0,0.0,86,0.00,,,0.00,LWC V2.00 B2112,2013-01-21 10:16:00,
2013-01-21 02:21:00,16.1,12.7,30.47,NW,313,4.0,6.0,86,0.00,,,0.00,LWC V2.00 B2112,2013-01-21 10:21:00,
2013-01-21 02:26:00,16.1,12.4,30.47,NW,313,2.0,2.0,85,0.00,,,0.00,LWC V2.00 B2112,2013-01-21 10:26:00,
2013-01-21 02:31:00,16.1,12.4,30.47,NW,313,2.0,2.0,85,0.00,,,0.00,LWC V2.00 B2112,2013-01-21 10:31:00,
2013-01-21 02:36:00,16.1,12.9,30.47,NW,313,0.0,4.0,87,0.00,,,0.00,LWC V2.00 B2112,2013-01-21 10:36:00,
2013-01-21 02:41:00,16.1,12.7,30.47,NW,313,0.0,0.0,86,0.00,,,0.00,LWC V2.00 B2112,2013-01-21 10:41:00,
2013-01-21 02:46:00,15.9,11.9,30.47,NW,313,1.0,2.0,84,0.00,,,0.00,LWC V2.00 B2112,2013-01-21 10:46:00,
2013-01-21 02:51:00,15.9,11.9,30.47,NW,313,1.0,4.0,84,0.00,,,0.00,LWC V2.00 B2112,2013-01-21 10:51:00,
2013-01-21 02:56:00,15.7,12.0,30.47,NW,313,0.0,2.0,85,0.00,,,0.00,LWC V2.00 B2112,2013-01-21 10:56:00,
2013-01-21 03:01:00,15.6,11.9,30.47,NW,313,2.0,2.0,85,0.00,,,0.00,LWC V2.00 B2112,2013-01-21 11:01:00,
2013-01-21 03:06:00,15.6,11.9,30.47,NW,313,1.0,4.0,85,0.00,,,0.00,LWC V2.00 B2112,2013-01-21 11:06:00,
2013-01-21 03:11:00,15.6,11.9,30.47,NW,313,2.0,2.0,85,0.00,,,0.00,LWC V2.00 B2112,2013-01-21 11:11:00,
2013-01-21 03:16:00,15.4,11.7,30.47,NW,313,1.0,6.0,85,0.00,,,0.00,LWC V2.00 B2112,2013-01-21 11:16:00,
2013-01-21 03:21:00,15.4,11.7,30.47,NW,315,2.0,4.0,85,0.00,,,0.00,LWC V2.00 B2112,2013-01-21 11:21:00,
2013-01-21 03:26:00,15.4,11.7,30.47,NW,315,0.0,2.0,85,0.00,,,0.00,LWC V2.00 B2112,2013-01-21 11:26:00,
2013-01-21 03:31:00,15.2,11.8,30.47,NW,316,6.0,7.0,86,0.00,,,0.00,LWC V2.00 B2112,2013-01-21 11:31:00,
2013-01-21 03:36:00,15.4,11.7,30.47,NW,318,0.0,2.0,85,0.00,,,0.00,LWC V2.00 B2112,2013-01-21 11:36:00,
2013-01-21 03:41:00,15.4,11.7,30.47,NW,318,2.0,2.0,85,0.00,,,0.00,LWC V2.00 B2112,2013-01-21 11:41:00,
2013-01-21 03:46:00,15.4,11.7,30.47,WNW,295,1.0,6.0,85,0.00,,,0.00,LWC V2.00 B2112,2013-01-21 11:46:00,
2013-01-21 03:51:00,15.4,12.0,30.47,NW,315,2.0,8.0,86,0.00,,,0.00,LWC V2.00 B2112,2013-01-21 11:51:00,
2013-01-21 03:56:00,15.6,11.6,30.46,NNW,342,6.0,9.0,84,0.00,,,0.00,LWC V2.00 B2112,2013-01-21 11:56:00,
2013-01-21 04:01:00,15.6,11.6,30.46,NNW,328,0.0,2.0,84,0.00,,,0.00,LWC V2.00 B2112,2013-01-21 12:01:00,
2013-01-21 04:06:00,15.6,11.6,30.46,NNW,335,6.0,8.0,84,0.00,,,0.00,LWC V2.00 B2112,2013-01-21 12:06:00,
2013-01-21 04:11:00,15.6,11.6,30.45,WNW,296,7.0,10.0,84,0.00,,,0.00,LWC V2.00 B2112,2013-01-21 12:11:00,
2013-01-21 04:16:00,15.6,11.6,30.45,WNW,296,9.0,11.0,84,0.00,,,0.00,LWC V2.00 B2112,2013-01-21 12:16:00,
2013-01-21 04:21:00,15.6,11.6,30.45,WNW,302,8.0,10.0,84,0.00,,,0.00,LWC V2.00 B2112,2013-01-21 12:21:00,
2013-01-21 04:26:00,15.7,11.7,30.45,NW,309,4.0,9.0,84,0.00,,,0.00,LWC V2.00 B2112,2013-01-21 12:26:00,
2013-01-21 04:31:00,15.7,11.7,30.45,NW,309,7.0,10.0,84,0.00,,,0.00,LWC V2.00 B2112,2013-01-21 12:31:00,
2013-01-21 04:36:00,15.7,11.5,30.45,NNW,344,6.0,11.0,83,0.00,,,0.00,LWC V2.00 B2112,2013-01-21 12:36:00,
2013-01-21 04:41:00,15.7,11.5,30.44,NW,322,8.0,11.0,83,0.00,,,0.00,LWC V2.00 B2112,2013-01-21 12:41:00,
2013-01-21 04:46:00,15.7,11.5,30.44,NW,315,4.0,4.0,83,0.00,,,0.00,LWC V2.00 B2112,2013-01-21 12:46:00,
2013-01-21 04:51:00,15.7,11.2,30.44,WNW,284,6.0,7.0,82,0.00,,,0.00,LWC V2.00 B2112,2013-01-21 12:51:00,
2013-01-21 04:56:00,15.7,11.5,30.45,NW,309,1.0,4.0,83,0.00,,,0.00,LWC V2.00 B2112,2013-01-21 12:56:00,
2013-01-21 05:01:00,15.7,11.2,30.45,WNW,298,0.0,7.0,82,0.00,,,0.00,LWC V2.00 B2112,2013-01-21 13:01:00,
2013-01-21 05:06:00,15.7,11.7,30.45,NW,315,4.0,8.0,84,0.00,,,0.00,LWC V2.00 B2112,2013-01-21 13:06:00,
2013-01-21 05:11:00,15.7,11.7,30.44,NE,40,2.0,7.0,84,0.00,,,0.00,LWC V2.00 B2112,2013-01-21 13:11:00,
2013-01-21 05:16:00,15.7,11.5,30.44,NNW,344,4.0,6.0,83,0.00,,,0.00,LWC V2.00 B2112,2013-01-21 13:16:00,
2013-01-21 05:21:00,15.6,11.4,30.44,NW,322,2.0,4.0,83,0.00,,,0.00,LWC V2.00 B2112,2013-01-21 13:21:00,
2013-01-21 05:26:00,15.6,11.4,30.44,NW,322,2.0,6.0,83,0.00,,,0.00,LWC V2.00 B2112,2013-01-21 13:26:00,
2013-01-21 05:31:00,15.7,11.5,30.44,NNW,330,6.0,7.0,83,0.00,,,0.00,LWC V2.00 B2112,2013-01-21 13:31:00,
2013-01-21 05:36:00,15.7,11.5,30.44,NW,316,6.0,8.0,83,0.00,,,0.00,LWC V2.00 B2112,2013-01-21 13:36:00,
2013-01-21 05:41:00,15.6,10.8,30.43,NW,313,7.0,8.0,81,0.00,,,0.00,LWC V2.00 B2112,2013-01-21 13:41:00,
2013-01-21 05:46:00,15.6,11.4,30.43,NW,320,2.0,6.0,83,0.00,,,0.00,LWC V2.00 B2112,2013-01-21 13:46:00,
2013-01-21 05:51:00,15.6,11.1,30.43,WNW,288,4.0,7.0,82,0.00,,,0.00,LWC V2.00 B2112,2013-01-21 13:51:00,
2013-01-21 05:56:00,15.6,11.1,30.43,NW,315,4.0,6.0,82,0.00,,,0.00,LWC V2.00 B2112,2013-01-21 13:56:00,
2013-01-21 06:01:00,15.6,11.1,30.43,North,350,2.0,8.0,82,0.00,,,0.00,LWC V2.00 B2112,2013-01-21 14:01:00,
2013-01-21 06:06:00,15.7,11.5,30.43,NW,326,4.0,6.0,83,0.00,,,0.00,LWC V2.00 B2112,2013-01-21 14:06:00,
2013-01-21 06:11:00,15.7,11.5,30.43,NNW,330,2.0,6.0,83,0.00,,,0.00,LWC V2.00 B2112,2013-01-21 14:11:00,
2013-01-21 06:16:00,15.6,11.6,30.43,NNW,342,4.0,6.0,84,0.00,,,0.00,LWC V2.00 B2112,2013-01-21 14:16:00,
2013-01-21 06:21:00,15.6,11.6,30.43,North,0,6.0,6.0,84,0.00,,,0.00,LWC V2.00 B2112,2013-01-21 14:21:00,
2013-01-21 06:26:00,15.6,11.6,30.43,NW,316,4.0,7.0,84,0.00,,,0.00,LWC V2.00 B2112,2013-01-21 14:26:00,
2013-01-21 06:31:00,15.6,11.9,30.43,NNW,335,7.0,8.0,85,0.00,,,0.00,LWC V2.00 B2112,2013-01-21 14:31:00,
2013-01-21 06:36:00,15.6,11.6,30.43,NNW,329,4.0,7.0,84,0.00,,,0.00,LWC V2.00 B2112,2013-01-21 14:36:00,
2013-01-21 06:41:00,15.6,11.6,30.43,NW,325,6.0,6.0,84,0.00,,,0.00,LWC V2.00 B2112,2013-01-21 14:41:00,
2013-01-21 06:46:00,15.6,11.1,30.43,NW,322,6.0,6.0,82,0.00,,,0.00,LWC V2.00 B2112,2013-01-21 14:46:00,
2013-01-21 06:51:00,15.6,11.1,30.43,NW,320,2.0,2.0,82,0.00,,,0.00,LWC V2.00 B2112,2013-01-21 14:51:00,
2013-01-21 06:56:00,15.6,11.1,30.43,NW,316,6.0,6.0,82,0.00,,,0.00,LWC V2.00 B2112,2013-01-21 14:56:00,
2013-01-21 07:01:00,15.6,11.1,30.43,NW,316,2.0,2.0,82,0.00,,,0.00,LWC V2.00 B2112,2013-01-21 15:01:00,
2013-01-21 07:06:00,15.4,11.7,30.43,NW,305,2.0,6.0,85,0.00,,,0.00,LWC V2.00 B2112,2013-01-21 15:06:00,
2013-01-21 07:11:00,15.4,11.4,30.43,NW,322,6.0,7.0,84,0.00,,,0.00,LWC V2.00 B2112,2013-01-21 15:11:00,
2013-01-21 07:16:00,15.4,11.2,30.43,NW,316,6.0,7.0,83,0.00,,,0.00,LWC V2.00 B2112,2013-01-21 15:16:00,
2013-01-21 07:21:00,15.6,11.6,30.43,NW,313,4.0,8.0,84,0.00,,,0.00,LWC V2.00 B2112,2013-01-21 15:21:00,
2013-01-21 07:26:00,15.6,11.1,30.43,NW,312,4.0,11.0,82,0.00,,,0.00,LWC V2.00 B2112,2013-01-21 15:26:00,
2013-01-21 07:31:00,15.4,11.2,30.43,NW,312,8.0,8.0,83,0.00,,,0.00,LWC V2.00 B2112,2013-01-21 15:31:00,
2013-01-21 07:36:00,15.4,11.2,30.43,NW,318,6.0,9.0,83,0.00,,,0.00,LWC V2.00 B2112,2013-01-21 15:36:00,
2013-01-21 07:41:00,15.2,11.0,30.43,NW,320,6.0,7.0,83,0.00,,,0.00,LWC V2.00 B2112,2013-01-21 15:41:00,
2013-01-21 07:46:00,15.2,10.7,30.43,NNW,330,7.0,10.0,82,0.00,,,0.00,LWC V2.00 B2112,2013-01-21 15:46:00,
2013-01-21 07:51:00,15.2,10.4,30.43,NNW,336,8.0,9.0,81,0.00,,,0.00,LWC V2.00 B2112,2013-01-21 15:51:00,
2013-01-21 07:56:00,15.2,11.3,30.43,NW,316,4.0,8.0,84,0.00,,,0.00,LWC V2.00 B2112,2013-01-21 15:56:00,
2013-01-21 08:01:00,15.2,11.0,30.43,NW,325,4.0,9.0,83,0.00,,,0.00,LWC V2.00 B2112,2013-01-21 16:01:00,
2013-01-21 08:06:00,15.2,10.7,30.43,North,354,6.0,9.0,82,0.00,,,0.00,LWC V2.00 B2112,2013-01-21 16:06:00,
2013-01-21 08:11:00,15.2,11.0,30.44,North,353,4.0,8.0,83,0.00,,,0.00,LWC V2.00 B2112,2013-01-21 16:11:00,
2013-01-21 08:16:00,15.2,11.0,30.44,NNW,347,7.0,9.0,83,0.00,,,0.00,LWC V2.00 B2112,2013-01-21 16:16:00,
2013-01-21 08:21:00,15.2,10.7,30.44,NW,313,6.0,8.0,82,0.00,,,0.00,LWC V2.00 B2112,2013-01-21 16:21:00,
2013-01-21 08:26:00,15.2,10.7,30.43,NNW,340,6.0,8.0,82,0.00,,,0.00,LWC V2.00 B2112,2013-01-21 16:26:00,
2013-01-21 08:31:00,15.4,11.2,30.43,NW,306,4.0,6.0,83,0.00,,,0.00,LWC V2.00 B2112,2013-01-21 16:31:00,
2013-01-21 08:36:00,15.4,10.6,30.43,NNW,344,8.0,9.0,81,0.00,,,0.00,LWC V2.00 B2112,2013-01-21 16:36:00,
2013-01-21 08:41:00,15.2,10.4,30.43,North,349,4.0,9.0,81,0.00,,,0.00,LWC V2.00 B2112,2013-01-21 16:41:00,
2013-01-21 08:46:00,15.2,10.7,30.43,North,349,8.0,10.0,82,0.00,,,0.00,LWC V2.00 B2112,2013-01-21 16:46:00,
2013-01-21 08:51:00,15.2,11.5,30.43,NW,312,9.0,11.0,85,0.00,,,0.00,LWC V2.00 B2112,2013-01-21 16:51:00,
2013-01-21 08:56:00,15.2,11.3,30.44,WNW,291,4.0,9.0,84,0.00,,,0.00,LWC V2.00 B2112,2013-01-21 16:56:00,
2013-01-21 09:01:00,15.4,11.4,30.44,NW,313,7.0,7.0,84,0.00,,,0.00,LWC V2.00 B2112,2013-01-21 17:01:00,
2013-01-21 09:06:00,15.4,11.7,30.44,NW,312,7.0,8.0,85,0.00,,,0.00,LWC V2.00 B2112,2013-01-21 17:06:00,
2013-01-21 09:11:00,15.6,11.9,30.45,NNW,328,1.0,6.0,85,0.00,,,0.00,LWC V2.00 B2112,2013-01-21 17:11:00,
2013-01-21 09:16:00,15.6,12.2,30.45,NNW,344,4.0,8.0,86,0.00,,,0.00,LWC V2.00 B2112,2013-01-21 17:16:00,
2013-01-21 09:20:00,15.2,10.4,30.43,NW,315,6.0,10.0,81,0.00,,,0.00,LWC V2.00 B2112,2013-01-21 17:20:00,
2013-01-21 09:30:00,15.2,10.4,30.43,NW,315,6.0,10.0,81,0.00,,,0.00,LWC V2.00 B2112,2013-01-21 17:30:00,
2013-01-21 09:40:00,15.2,10.4,30.43,NW,315,6.0,10.0,81,0.00,,,0.00,LWC V2.00 B2112,2013-01-21 17:40:00,
2013-01-21 09:50:00,15.2,10.4,30.43,NW,315,6.0,10.0,81,0.00,,,0.00,LWC V2.00 B2112,2013-01-21 17:50:00,
2013-01-21 10:00:00,15.5,12.1,30.45,NNW,338,5.0,11.0,86,0.00,,,0.00,LWC V2.00 B2112,2013-01-21 18:00:00,
2013-01-21 10:10:00,15.5,12.1,30.45,NNW,338,5.0,11.0,86,0.00,,,0.00,LWC V2.00 B2112,2013-01-21 18:10:00,
2013-01-21 10:20:00,15.5,12.1,30.45,NNW,338,5.0,11.0,86,0.00,,,0.00,LWC V2.00 B2112,2013-01-21 18:20:00,
2013-01-21 10:30:00,15.5,12.1,30.45,NNW,338,5.0,11.0,86,0.00,,,0.00,LWC V2.00 B2112,2013-01-21 18:30:00,
2013-01-21 10:40:00,15.5,12.1,30.45,NNW,338,5.0,11.0,86,0.00,,,0.00,LWC V2.00 B2112,2013-01-21 18:40:00,
2013-01-21 10:50:00,15.5,12.1,30.45,NNW,338,5.0,11.0,86,0.00,,,0.00,LWC V2.00 B2112,2013-01-21 18:50:00,
2013-01-21 11:00:00,17.1,12.3,30.44,NW,315,1.0,8.0,81,0.00,,,0.00,LWC V2.00 B2112,2013-01-21 19:00:00,
2013-01-21 11:10:00,17.1,12.3,30.44,NW,315,1.0,8.0,81,0.00,,,0.00,LWC V2.00 B2112,2013-01-21 19:10:00,
2013-01-21 11:20:00,17.1,12.3,30.44,NW,315,1.0,8.0,81,0.00,,,0.00,LWC V2.00 B2112,2013-01-21 19:20:00,
2013-01-21 11:30:00,17.1,12.3,30.44,NW,315,1.0,8.0,81,0.00,,,0.00,LWC V2.00 B2112,2013-01-21 19:30:00,
2013-01-21 11:40:00,17.1,12.3,30.44,NW,315,1.0,8.0,81,0.00,,,0.00,LWC V2.00 B2112,2013-01-21 19:40:00,
2013-01-21 11:50:00,17.1,12.3,30.44,NW,315,1.0,8.0,81,0.00,,,0.00,LWC V2.00 B2112,2013-01-21 19:50:00,
2013-01-21 12:00:00,20.1,15.5,30.43,NW,315,0.0,4.0,82,0.00,,,0.00,LWC V2.00 B2112,2013-01-21 20:00:00,
2013-01-21 12:10:00,20.1,15.5,30.43,NW,315,0.0,4.0,82,0.00,,,0.00,LWC V2.00 B2112,2013-01-21 20:10:00,
2013-01-21 12:20:00,20.1,15.5,30.43,NW,315,0.0,4.0,82,0.00,,,0.00,LWC V2.00 B2112,2013-01-21 20:20:00,
2013-01-21 12:30:00,20.1,15.5,30.43,NW,315,0.0,4.0,82,0.00,,,0.00,LWC V2.00 B2112,2013-01-21 20:30:00,
2013-01-21 12:40:00,20.1,15.5,30.43,NW,315,0.0,4.0,82,0.00,,,0.00,LWC V2.00 B2112,2013-01-21 20:40:00,
2013-01-21 12:50:00,20.1,15.5,30.43,NW,315,0.0,4.0,82,0.00,,,0.00,LWC V2.00 B2112,2013-01-21 20:50:00,
2013-01-21 13:00:00,20.7,16.6,30.40,WSW,248,1.0,7.0,84,0.00,,,0.00,LWC V2.00 B2112,2013-01-21 21:00:00,
2013-01-21 13:10:00,20.7,16.6,30.40,WSW,248,1.0,7.0,84,0.00,,,0.00,LWC V2.00 B2112,2013-01-21 21:10:00,
2013-01-21 13:20:00,20.7,16.6,30.40,WSW,248,1.0,7.0,84,0.00,,,0.00,LWC V2.00 B2112,2013-01-21 21:20:00,
2013-01-21 13:30:00,20.7,16.6,30.40,WSW,248,1.0,7.0,84,0.00,,,0.00,LWC V2.00 B2112,2013-01-21 21:30:00,
2013-01-21 13:46:00,22.1,16.9,30.38,SE,138,0.0,0.0,80,0.00,,,0.00,LWC V2.00 B2112,2013-01-21 21:46:00,
2013-01-21 13:51:00,22.2,17.0,30.38,SE,138,0.0,0.0,80,0.00,,,0.00,LWC V2.00 B2112,2013-01-21 21:51:00,
2013-01-21 13:56:00,22.5,17.3,30.37,SE,138,0.0,0.0,80,0.00,,,0.00,LWC V2.00 B2112,2013-01-21 21:56:00,
2013-01-21 14:01:00,22.7,17.2,30.37,SE,138,0.0,0.0,79,0.00,,,0.00,LWC V2.00 B2112,2013-01-21 22:01:00,
2013-01-21 14:06:00,23.0,17.5,30.37,SE,138,0.0,0.0,79,0.00,,,0.00,LWC V2.00 B2112,2013-01-21 22:06:00,
2013-01-21 14:11:00,23.3,17.5,30.36,SE,138,0.0,0.0,78,0.00,,,0.00,LWC V2.00 B2112,2013-01-21 22:11:00,
2013-01-21 14:16:00,23.0,16.9,30.36,SE,138,0.0,0.0,77,0.00,,,0.00,LWC V2.00 B2112,2013-01-21 22:16:00,
2013-01-21 14:21:00,23.0,16.9,30.36,SE,138,0.0,0.0,77,0.00,,,0.00,LWC V2.00 B2112,2013-01-21 22:21:00,
2013-01-21 14:26:00,23.2,17.1,30.36,SE,138,0.0,0.0,77,0.00,,,0.00,LWC V2.00 B2112,2013-01-21 22:26:00,
2013-01-21 14:31:00,22.9,17.1,30.36,SE,138,0.0,0.0,78,0.00,,,0.00,LWC V2.00 B2112,2013-01-21 22:31:00,
2013-01-21 14:36:00,22.5,17.0,30.36,SE,138,0.0,2.0,79,0.00,,,0.00,LWC V2.00 B2112,2013-01-21 22:36:00,
2013-01-21 14:41:00,22.1,17.2,30.36,SE,138,1.0,4.0,81,0.00,,,0.00,LWC V2.00 B2112,2013-01-21 22:41:00,
2013-01-21 14:46:00,21.9,17.0,30.36,SE,138,0.0,0.0,81,0.00,,,0.00,LWC V2.00 B2112,2013-01-21 22:46:00,
2013-01-21 14:51:00,21.8,17.2,30.36,SE,138,0.0,4.0,82,0.00,,,0.00,LWC V2.00 B2112,2013-01-21 22:51:00,
2013-01-21 14:56:00,21.6,17.0,30.37,SE,138,0.0,2.0,82,0.00,,,0.00,LWC V2.00 B2112,2013-01-21 22:56:00,
2013-01-21 15:01:00,21.8,17.2,30.37,SE,138,0.0,0.0,82,0.00,,,0.00,LWC V2.00 B2112,2013-01-21 23:01:00,
2013-01-21 15:06:00,21.8,17.7,30.37,SSE,148,0.0,4.0,84,0.00,,,0.00,LWC V2.00 B2112,2013-01-21 23:06:00,
2013-01-21 15:11:00,21.6,17.3,30.37,SSE,148,0.0,0.0,83,0.00,,,0.00,LWC V2.00 B2112,2013-01-21 23:11:00,
2013-01-21 15:16:00,21.8,17.4,30.37,SSE,148,0.0,0.0,83,0.00,,,0.00,LWC V2.00 B2112,2013-01-21 23:16:00,
2013-01-21 15:21:00,21.8,17.4,30.37,SSE,148,0.0,0.0,83,0.00,,,0.00,LWC V2.00 B2112,2013-01-21 23:21:00,
2013-01-21 15:26:00,21.9,17.3,30.37,SSE,148,0.0,0.0,82,0.00,,,0.00,LWC V2.00 B2112,2013-01-21 23:26:00,
2013-01-21 15:31:00,21.4,16.8,30.37,SE,145,0.0,0.0,82,0.00,,,0.00,LWC V2.00 B2112,2013-01-21 23:31:00,
2013-01-21 15:36:00,21.6,17.3,30.37,SE,145,0.0,0.0,83,0.00,,,0.00,LWC V2.00 B2112,2013-01-21 23:36:00,
2013-01-21 15:41:00,21.8,17.4,30.37,SE,145,0.0,0.0,83,0.00,,,0.00,LWC V2.00 B2112,2013-01-21 23:41:00,
2013-01-21 15:46:00,21.6,17.3,30.37,South,184,2.0,6.0,83,0.00,,,0.00,LWC V2.00 B2112,2013-01-21 23:46:00,
2013-01-21 15:51:00,21.3,17.2,30.37,South,184,0.0,0.0,84,0.00,,,0.00,LWC V2.00 B2112,2013-01-21 23:51:00,
2013-01-21 15:56:00,21.1,17.3,30.36,South,184,2.0,6.0,85,0.00,,,0.00,LWC V2.00 B2112,2013-01-21 23:56:00,
2013-01-21 16:01:00,21.1,17.3,30.36,South,184,0.0,0.0,85,0.00,,,0.00,LWC V2.00 B2112,2013-01-22 00:01:00,
2013-01-21 16:06:00,21.1,17.6,30.36,South,184,0.0,1.0,86,0.00,,,0.00,LWC V2.00 B2112,2013-01-22 00:06:00,
2013-01-21 16:11:00,21.1,17.3,30.37,South,184,0.0,4.0,85,0.00,,,0.00,LWC V2.00 B2112,2013-01-22 00:11:00,
2013-01-21 16:16:00,21.1,17.6,30.37,South,184,0.0,0.0,86,0.00,,,0.00,LWC V2.00 B2112,2013-01-22 00:16:00,
2013-01-21 16:21:00,21.1,17.6,30.37,South,184,0.0,0.0,86,0.00,,,0.00,LWC V2.00 B2112,2013-01-22 00:21:00,
2013-01-21 16:26:00,21.0,17.5,30.36,South,185,1.0,2.0,86,0.00,,,0.00,LWC V2.00 B2112,2013-01-22 00:26:00,
2013-01-21 16:31:00,20.8,17.3,30.36,SSW,202,2.0,2.0,86,0.00,,,0.00,LWC V2.00 B2112,2013-01-22 00:31:00,
2013-01-21 16:36:00,20.8,17.3,30.36,SSW,202,0.0,0.0,86,0.00,,,0.00,LWC V2.00 B2112,2013-01-22 00:36:00,
2013-01-21 16:41:00,20.8,17.3,30.36,SSW,202,0.0,0.0,86,0.00,,,0.00,LWC V2.00 B2112,2013-01-22 00:41:00,
2013-01-21 16:46:00,20.6,16.8,30.36,SSW,202,0.0,0.0,85,0.00,,,0.00,LWC V2.00 B2112,2013-01-22 00:46:00,
2013-01-21 16:51:00,20.6,16.8,30.36,WNW,298,2.0,4.0,85,0.00,,,0.00,LWC V2.00 B2112,2013-01-22 00:51:00,
2013-01-21 16:56:00,20.6,16.8,30.36,WNW,298,0.0,0.0,85,0.00,,,0.00,LWC V2.00 B2112,2013-01-22 00:56:00,
2013-01-21 17:01:00,20.5,16.7,30.36,WNW,298,0.0,0.0,85,0.00,,,0.00,LWC V2.00 B2112,2013-01-22 01:01:00,
2013-01-21 17:06:00,20.5,17.0,30.36,WNW,298,0.0,0.0,86,0.00,,,0.00,LWC V2.00 B2112,2013-01-22 01:06:00,
2013-01-21 17:11:00,20.3,16.5,30.36,WNW,298,2.0,6.0,85,0.00,,,0.00,LWC V2.00 B2112,2013-01-22 01:11:00,
2013-01-21 17:16:00,20.3,16.5,30.36,WNW,298,0.0,0.0,85,0.00,,,0.00,LWC V2.00 B2112,2013-01-22 01:16:00,
2013-01-21 17:21:00,20.2,16.4,30.36,WNW,298,2.0,4.0,85,0.00,,,0.00,LWC V2.00 B2112,2013-01-22 01:21:00,
2013-01-21 17:26:00,20.2,16.4,30.36,WSW,254,2.0,6.0,85,0.00,,,0.00,LWC V2.00 B2112,2013-01-22 01:26:00,
2013-01-21 17:31:00,20.2,16.4,30.36,WSW,254,2.0,2.0,85,0.00,,,0.00,LWC V2.00 B2112,2013-01-22 01:31:00,
2013-01-21 17:36:00,20.2,17.0,30.36,NNW,346,2.0,6.0,87,0.00,,,0.00,LWC V2.00 B2112,2013-01-22 01:36:00,
2013-01-21 17:41:00,20.0,16.8,30.36,North,4,0.0,0.0,87,0.00,,,0.00,LWC V2.00 B2112,2013-01-22 01:41:00,
2013-01-21 17:46:00,20.0,16.8,30.36,North,1,0.0,0.0,87,0.00,,,0.00,LWC V2.00 B2112,2013-01-22 01:46:00,
2013-01-21 17:51:00,20.0,16.2,30.36,North,359,1.0,2.0,85,0.00,,,0.00,LWC V2.00 B2112,2013-01-22 01:51:00,
2013-01-21 17:56:00,20.0,16.5,30.37,North,359,0.0,4.0,86,0.00,,,0.00,LWC V2.00 B2112,2013-01-22 01:56:00,
2013-01-21 18:01:00,19.9,16.4,30.37,North,359,2.0,2.0,86,0.00,,,0.00,LWC V2.00 B2112,2013-01-22 02:01:00,
2013-01-21 18:06:00,19.9,16.1,30.37,North,359,0.0,0.0,85,0.00,,,0.00,LWC V2.00 B2112,2013-01-22 02:06:00,
2013-01-21 18:11:00,19.9,16.4,30.37,North,359,0.0,0.0,86,0.00,,,0.00,LWC V2.00 B2112,2013-01-22 02:11:00,
2013-01-21 18:16:00,19.9,16.4,30.37,North,359,2.0,2.0,86,0.00,,,0.00,LWC V2.00 B2112,2013-01-22 02:16:00,
2013-01-21 18:21:00,19.9,16.7,30.37,North,359,0.0,0.0,87,0.00,,,0.00,LWC V2.00 B2112,2013-01-22 02:21:00,
2013-01-21 18:26:00,19.9,16.4,30.37,North,359,0.0,0.0,86,0.00,,,0.00,LWC V2.00 B2112,2013-01-22 02:26:00,
2013-01-21 18:31:00,19.9,16.4,30.37,North,359,0.0,0.0,86,0.00,,,0.00,LWC V2.00 B2112,2013-01-22 02:31:00,
2013-01-21 18:36:00,19.9,16.7,30.37,North,359,0.0,0.0,87,0.00,,,0.00,LWC V2.00 B2112,2013-01-22 02:36:00,
2013-01-21 18:41:00,19.9,16.7,30.37,North,359,0.0,0.0,87,0.00,,,0.00,LWC V2.00 B2112,2013-01-22 02:41:00,
2013-01-21 18:46:00,19.9,16.7,30.37,North,359,0.0,2.0,87,0.00,,,0.00,LWC V2.00 B2112,2013-01-22 02:46:00,
2013-01-21 18:51:00,19.9,16.7,30.37,North,359,0.0,0.0,87,0.00,,,0.00,LWC V2.00 B2112,2013-01-22 02:51:00,
2013-01-21 18:56:00,19.7,16.2,30.37,North,359,0.0,2.0,86,0.00,,,0.00,LWC V2.00 B2112,2013-01-22 02:56:00,
2013-01-21 19:01:00,19.7,16.2,30.37,North,7,0.0,6.0,86,0.00,,,0.00,LWC V2.00 B2112,2013-01-22 03:01:00,
2013-01-21 19:06:00,19.5,15.5,30.37,NNE,13,2.0,4.0,84,0.00,,,0.00,LWC V2.00 B2112,2013-01-22 03:06:00,
2013-01-21 19:11:00,19.4,15.1,30.37,NNE,13,1.0,6.0,83,0.00,,,0.00,LWC V2.00 B2112,2013-01-22 03:11:00,
2013-01-21 19:16:00,19.4,14.8,30.37,NNE,28,0.0,4.0,82,0.00,,,0.00,LWC V2.00 B2112,2013-01-22 03:16:00,
2013-01-21 19:21:00,19.2,14.6,30.37,NE,49,4.0,6.0,82,0.00,,,0.00,LWC V2.00 B2112,2013-01-22 03:21:00,
2013-01-21 19:26:00,19.2,14.9,30.37,NNE,17,1.0,6.0,83,0.00,,,0.00,LWC V2.00 B2112,2013-01-22 03:26:00,
2013-01-21 19:31:00,19.2,15.2,30.37,NNE,32,6.0,6.0,84,0.00,,,0.00,LWC V2.00 B2112,2013-01-22 03:31:00,
2013-01-21 19:36:00,19.1,14.5,30.37,North,11,2.0,4.0,82,0.00,,,0.00,LWC V2.00 B2112,2013-01-22 03:36:00,
2013-01-21 19:41:00,19.1,14.5,30.37,NE,41,6.0,6.0,82,0.00,,,0.00,LWC V2.00 B2112,2013-01-22 03:41:00,
2013-01-21 19:46:00,18.9,14.1,30.37,NE,37,2.0,8.0,81,0.00,,,0.00,LWC V2.00 B2112,2013-01-22 03:46:00,
2013-01-21 19:51:00,18.8,14.2,30.37,NNE,31,1.0,4.0,82,0.00,,,0.00,LWC V2.00 B2112,2013-01-22 03:51:00,
2013-01-21 19:56:00,18.8,14.2,30.38,NNE,18,0.0,6.0,82,0.00,,,0.00,LWC V2.00 B2112,2013-01-22 03:56:00,
2013-01-21 20:01:00,18.8,14.5,30.38,NE,41,1.0,6.0,83,0.00,,,0.00,LWC V2.00 B2112,2013-01-22 04:01:00,
2013-01-21 20:06:00,18.8,14.0,30.38,NE,42,6.0,6.0,81,0.00,,,0.00,LWC V2.00 B2112,2013-01-22 04:06:00,
2013-01-21 20:11:00,18.8,13.4,30.38,NE,45,6.0,7.0,79,0.00,,,0.00,LWC V2.00 B2112,2013-01-22 04:11:00,
2013-01-21 20:16:00,18.8,13.4,30.38,NNE,30,0.0,4.0,79,0.00,,,0.00,LWC V2.00 B2112,2013-01-22 04:16:00,
2013-01-21 20:21:00,18.8,13.7,30.38,North,0,2.0,4.0,80,0.00,,,0.00,LWC V2.00 B2112,2013-01-22 04:21:00,
2013-01-21 20:26:00,18.8,13.7,30.38,NE,49,4.0,7.0,80,0.00,,,0.00,LWC V2.00 B2112,2013-01-22 04:26:00,
2013-01-21 20:31:00,18.6,13.2,30.38,NNE,25,4.0,6.0,79,0.00,,,0.00,LWC V2.00 B2112,2013-01-22 04:31:00,
2013-01-21 20:36:00,18.6,13.8,30.38,NE,47,6.0,6.0,81,0.00,,,0.00,LWC V2.00 B2112,2013-01-22 04:36:00,
2013-01-21 20:41:00,18.6,13.5,30.38,NNE,24,0.0,4.0,80,0.00,,,0.00,LWC V2.00 B2112,2013-01-22 04:41:00,
2013-01-21 20:46:00,18.6,13.5,30.38,NNE,20,1.0,6.0,80,0.00,,,0.00,LWC V2.00 B2112,2013-01-22 04:46:00,
2013-01-21 20:51:00,18.6,13.8,30.38,NNE,17,0.0,4.0,81,0.00,,,0.00,LWC V2.00 B2112,2013-01-22 04:51:00,
2013-01-21 20:56:00,18.6,14.0,30.38,NE,42,1.0,2.0,82,0.00,,,0.00,LWC V2.00 B2112,2013-01-22 04:56:00,
2013-01-21 21:00:00,18.6,14.0,30.38,NE,42,0.0,2.0,82,0.00,,,0.00,LWC V2.00 B2112,2013-01-22 05:00:00,
2013-01-21 21:05:00,18.4,13.8,30.38,NE,38,0.0,2.0,82,0.00,,,0.00,LWC V2.00 B2112,2013-01-22 05:05:00,
2013-01-21 21:10:00,18.4,13.6,30.38,NE,38,6.0,6.0,81,0.00,,,0.00,LWC V2.00 B2112,2013-01-22 05:10:00,
2013-01-21 21:15:00,18.3,14.0,30.38,NNE,30,2.0,9.0,83,0.00,,,0.00,LWC V2.00 B2112,2013-01-22 05:15:00,
2013-01-21 21:20:00,18.3,13.7,30.38,NW,308,10.0,10.0,82,0.00,,,0.00,LWC V2.00 B2112,2013-01-22 05:20:00,
2013-01-21 21:25:00,18.1,14.1,30.38,NW,306,6.0,6.0,84,0.00,,,0.00,LWC V2.00 B2112,2013-01-22 05:25:00,
2013-01-21 21:30:00,18.0,14.0,30.38,WNW,295,2.0,8.0,84,0.00,,,0.00,LWC V2.00 B2112,2013-01-22 05:30:00,
2013-01-21 21:35:00,17.8,14.1,30.38,WNW,294,1.0,7.0,85,0.00,,,0.00,LWC V2.00 B2112,2013-01-22 05:35:00,
2013-01-21 21:40:00,17.7,13.7,30.38,NNW,337,6.0,7.0,84,0.00,,,0.00,LWC V2.00 B2112,2013-01-22 05:40:00,
2013-01-21 21:45:00,17.7,13.7,30.38,NNW,339,2.0,4.0,84,0.00,,,0.00,LWC V2.00 B2112,2013-01-22 05:45:00,
2013-01-21 21:50:00,17.7,14.0,30.38,NNW,339,4.0,6.0,85,0.00,,,0.00,LWC V2.00 B2112,2013-01-22 05:50:00,
2013-01-21 21:55:00,17.5,14.0,30.38,NNW,344,2.0,6.0,86,0.00,,,0.00,LWC V2.00 B2112,2013-01-22 05:55:00,
2013-01-21 22:00:00,17.5,13.8,30.38,NNW,335,2.0,6.0,85,0.00,,,0.00,LWC V2.00 B2112,2013-01-22 06:00:00,
2013-01-21 22:05:00,17.3,13.8,30.38,NNW,335,1.0,2.0,86,0.00,,,0.00,LWC V2.00 B2112,2013-01-22 06:05:00,
2013-01-21 22:10:00,17.3,13.6,30.38,NNW,335,0.0,0.0,85,0.00,,,0.00,LWC V2.00 B2112,2013-01-22 06:10:00,
2013-01-21 22:15:00,17.3,13.3,30.38,NNW,335,1.0,4.0,84,0.00,,,0.00,LWC V2.00 B2112,2013-01-22 06:15:00,
2013-01-21 22:20:00,17.2,13.2,30.38,NNW,335,0.0,4.0,84,0.00,,,0.00,LWC V2.00 B2112,2013-01-22 06:20:00,
2013-01-21 22:25:00,17.2,13.2,30.38,NNW,330,0.0,2.0,84,0.00,,,0.00,LWC V2.00 B2112,2013-01-22 06:25:00,
2013-01-21 22:30:00,17.2,13.2,30.39,NNW,329,4.0,4.0,84,0.00,,,0.00,LWC V2.00 B2112,2013-01-22 06:30:00,
2013-01-21 22:35:00,17.0,13.0,30.39,NW,318,4.0,6.0,84,0.00,,,0.00,LWC V2.00 B2112,2013-01-22 06:35:00,
2013-01-21 22:40:00,16.9,12.6,30.39,NNW,343,0.0,4.0,83,0.00,,,0.00,LWC V2.00 B2112,2013-01-22 06:40:00,
2013-01-21 22:45:00,16.9,12.9,30.39,North,0,0.0,2.0,84,0.00,,,0.00,LWC V2.00 B2112,2013-01-22 06:45:00,
2013-01-21 22:50:00,16.9,12.6,30.39,North,359,1.0,2.0,83,0.00,,,0.00,LWC V2.00 B2112,2013-01-22 06:50:00,
2013-01-21 22:55:00,16.7,12.5,30.39,North,359,0.0,0.0,83,0.00,,,0.00,LWC V2.00 B2112,2013-01-22 06:55:00,
2013-01-21 23:00:00,16.7,12.5,30.39,North,354,2.0,4.0,83,0.00,,,0.00,LWC V2.00 B2112,2013-01-22 07:00:00,
2013-01-21 23:05:00,16.5,12.3,30.39,North,354,2.0,2.0,83,0.00,,,0.00,LWC V2.00 B2112,2013-01-22 07:05:00,
2013-01-21 23:10:00,16.5,12.3,30.39,North,354,1.0,4.0,83,0.00,,,0.00,LWC V2.00 B2112,2013-01-22 07:10:00,
2013-01-21 23:15:00,16.4,12.2,30.39,North,4,1.0,2.0,83,0.00,,,0.00,LWC V2.00 B2112,2013-01-22 07:15:00,
2013-01-21 23:20:00,16.4,12.2,30.39,North,0,4.0,4.0,83,0.00,,,0.00,LWC V2.00 B2112,2013-01-22 07:20:00,
2013-01-21 23:25:00,16.2,11.7,30.39,North,0,1.0,6.0,82,0.00,,,0.00,LWC V2.00 B2112,2013-01-22 07:25:00,
2013-01-21 23:30:00,16.2,11.7,30.40,NNE,17,0.0,4.0,82,0.00,,,0.00,LWC V2.00 B2112,2013-01-22 07:30:00,
2013-01-21 23:35:00,16.2,11.7,30.40,NNE,20,2.0,4.0,82,0.00,,,0.00,LWC V2.00 B2112,2013-01-22 07:35:00,
2013-01-21 23:40:00,16.1,11.3,30.40,NE,35,1.0,4.0,81,0.00,,,0.00,LWC V2.00 B2112,2013-01-22 07:40:00,
2013-01-21 23:45:00,16.1,11.9,30.40,NNE,25,2.0,2.0,83,0.00,,,0.00,LWC V2.00 B2112,2013-01-22 07:45:00,
2013-01-21 23:50:00,16.2,12.2,30.40,NW,320,1.0,4.0,84,0.00,,,0.00,LWC V2.00 B2112,2013-01-22 07:50:00,
2013-01-21 23:55:00,16.2,12.0,30.40,NW,325,4.0,4.0,83,0.00,,,0.00,LWC V2.00 B2112,2013-01-22 07:55:00,